sensor_id;sensor_type;location;lat;lon;timestamp;P1;P2;P0
63305;PMS5003;50735;52.060;1.248;2024-01-11T00:01:19;31;21;
63305;PMS5003;50735;52.060;1.248;2024-01-11T00:03:51;27;24;
63305;PMS5003;50735;52.060;1.248;2024-01-11T00:06:22;39;26;
63305;PMS5003;50735;52.060;1.248;2024-01-11T00:08:54;46;27;
63305;PMS5003;50735;52.060;1.248;2024-01-11T00:11:26;42;26;
63305;PMS5003;50735;52.060;1.248;2024-01-11T00:13:58;37;27;
63305;PMS5003;50735;52.060;1.248;2024-01-11T00:16:30;47;27;
63305;PMS5003;50735;52.060;1.248;2024-01-11T00:19:02;36;27;
63305;PMS5003;50735;52.060;1.248;2024-01-11T00:21:33;35;28;
63305;PMS5003;50735;52.060;1.248;2024-01-11T00:24:06;31;28;
63305;PMS5003;50735;52.060;1.248;2024-01-11T00:26:38;46;28;
63305;PMS5003;50735;52.060;1.248;2024-01-11T00:29:10;56;36;
63305;PMS5003;50735;52.060;1.248;2024-01-11T00:31:42;32;24;
63305;PMS5003;50735;52.060;1.248;2024-01-11T00:34:14;42;26;
63305;PMS5003;50735;52.060;1.248;2024-01-11T00:36:46;48;32;
63305;PMS5003;50735;52.060;1.248;2024-01-11T00:39:18;37;31;
63305;PMS5003;50735;52.060;1.248;2024-01-11T00:41:50;48;31;
63305;PMS5003;50735;52.060;1.248;2024-01-11T00:44:22;33;30;
63305;PMS5003;50735;52.060;1.248;2024-01-11T00:46:54;43;31;
63305;PMS5003;50735;52.060;1.248;2024-01-11T00:49:26;52;32;
63305;PMS5003;50735;52.060;1.248;2024-01-11T00:51:58;31;28;
63305;PMS5003;50735;52.060;1.248;2024-01-11T00:54:30;54;31;
63305;PMS5003;50735;52.060;1.248;2024-01-11T00:57:02;42;29;
63305;PMS5003;50735;52.060;1.248;2024-01-11T00:59:34;41;29;
63305;PMS5003;50735;52.060;1.248;2024-01-11T01:02:05;46;28;
63305;PMS5003;50735;52.060;1.248;2024-01-11T01:04:38;37;30;
63305;PMS5003;50735;52.060;1.248;2024-01-11T01:07:10;38;31;
63305;PMS5003;50735;52.060;1.248;2024-01-11T01:09:42;36;29;
63305;PMS5003;50735;52.060;1.248;2024-01-11T01:12:14;28;24;
63305;PMS5003;50735;52.060;1.248;2024-01-11T01:14:46;38;25;
63305;PMS5003;50735;52.060;1.248;2024-01-11T01:17:18;37;28;
63305;PMS5003;50735;52.060;1.248;2024-01-11T01:19:50;39;26;
63305;PMS5003;50735;52.060;1.248;2024-01-11T01:22:22;42;27;
63305;PMS5003;50735;52.060;1.248;2024-01-11T01:24:54;46;31;
63305;PMS5003;50735;52.060;1.248;2024-01-11T01:27:26;49;26;
63305;PMS5003;50735;52.060;1.248;2024-01-11T01:29:58;29;25;
63305;PMS5003;50735;52.060;1.248;2024-01-11T01:32:30;30;29;
63305;PMS5003;50735;52.060;1.248;2024-01-11T01:35:02;41;24;
63305;PMS5003;50735;52.060;1.248;2024-01-11T01:37:34;27;24;
63305;PMS5003;50735;52.060;1.248;2024-01-11T01:40:07;28;23;
63305;PMS5003;50735;52.060;1.248;2024-01-11T01:42:41;37;24;
63305;PMS5003;50735;52.060;1.248;2024-01-11T01:45:14;40;30;
63305;PMS5003;50735;52.060;1.248;2024-01-11T01:47:47;37;28;
63305;PMS5003;50735;52.060;1.248;2024-01-11T01:50:19;43;24;
63305;PMS5003;50735;52.060;1.248;2024-01-11T01:52:51;28;23;
63305;PMS5003;50735;52.060;1.248;2024-01-11T01:55:24;28;24;
63305;PMS5003;50735;52.060;1.248;2024-01-11T01:57:58;32;23;
63305;PMS5003;50735;52.060;1.248;2024-01-11T02:00:30;31;27;
63305;PMS5003;50735;52.060;1.248;2024-01-11T02:03:03;35;24;
63305;PMS5003;50735;52.060;1.248;2024-01-11T02:05:35;32;27;
63305;PMS5003;50735;52.060;1.248;2024-01-11T02:08:08;37;27;
63305;PMS5003;50735;52.060;1.248;2024-01-11T02:10:47;36;24;
63305;PMS5003;50735;52.060;1.248;2024-01-11T02:13:18;31;28;
63305;PMS5003;50735;52.060;1.248;2024-01-11T02:15:51;45;28;
63305;PMS5003;50735;52.060;1.248;2024-01-11T02:18:23;29;23;
63305;PMS5003;50735;52.060;1.248;2024-01-11T02:20:55;41;24;
63305;PMS5003;50735;52.060;1.248;2024-01-11T02:23:28;44;25;
63305;PMS5003;50735;52.060;1.248;2024-01-11T02:26:00;44;27;
63305;PMS5003;50735;52.060;1.248;2024-01-11T02:28:32;44;23;
63305;PMS5003;50735;52.060;1.248;2024-01-11T02:31:04;31;23;
63305;PMS5003;50735;52.060;1.248;2024-01-11T02:33:37;44;29;
63305;PMS5003;50735;52.060;1.248;2024-01-11T02:36:09;40;25;
63305;PMS5003;50735;52.060;1.248;2024-01-11T02:38:42;32;23;
63305;PMS5003;50735;52.060;1.248;2024-01-11T02:41:14;41;25;
63305;PMS5003;50735;52.060;1.248;2024-01-11T02:43:48;41;24;
63305;PMS5003;50735;52.060;1.248;2024-01-11T02:46:20;36;21;
63305;PMS5003;50735;52.060;1.248;2024-01-11T02:48:53;42;25;
63305;PMS5003;50735;52.060;1.248;2024-01-11T02:51:25;37;24;
63305;PMS5003;50735;52.060;1.248;2024-01-11T02:53:57;40;27;
63305;PMS5003;50735;52.060;1.248;2024-01-11T02:56:28;31;27;
63305;PMS5003;50735;52.060;1.248;2024-01-11T02:59:01;44;28;
63305;PMS5003;50735;52.060;1.248;2024-01-11T03:01:33;27;23;
63305;PMS5003;50735;52.060;1.248;2024-01-11T03:04:05;43;23;
63305;PMS5003;50735;52.060;1.248;2024-01-11T03:06:37;24;22;
63305;PMS5003;50735;52.060;1.248;2024-01-11T03:09:09;29;24;
63305;PMS5003;50735;52.060;1.248;2024-01-11T03:11:41;37;23;
63305;PMS5003;50735;52.060;1.248;2024-01-11T03:14:12;43;23;
63305;PMS5003;50735;52.060;1.248;2024-01-11T03:16:44;41;27;
63305;PMS5003;50735;52.060;1.248;2024-01-11T03:19:16;36;25;
63305;PMS5003;50735;52.060;1.248;2024-01-11T03:21:48;30;23;
63305;PMS5003;50735;52.060;1.248;2024-01-11T03:24:20;44;28;
63305;PMS5003;50735;52.060;1.248;2024-01-11T03:26:52;36;30;
63305;PMS5003;50735;52.060;1.248;2024-01-11T03:29:24;35;23;
63305;PMS5003;50735;52.060;1.248;2024-01-11T03:31:56;33;25;
63305;PMS5003;50735;52.060;1.248;2024-01-11T03:34:28;50;29;
63305;PMS5003;50735;52.060;1.248;2024-01-11T03:37:00;28;24;
63305;PMS5003;50735;52.060;1.248;2024-01-11T03:39:32;41;23;
63305;PMS5003;50735;52.060;1.248;2024-01-11T03:42:05;43;24;
63305;PMS5003;50735;52.060;1.248;2024-01-11T03:44:37;31;27;
63305;PMS5003;50735;52.060;1.248;2024-01-11T03:47:09;36;26;
63305;PMS5003;50735;52.060;1.248;2024-01-11T03:49:40;32;24;
63305;PMS5003;50735;52.060;1.248;2024-01-11T03:52:12;35;27;
63305;PMS5003;50735;52.060;1.248;2024-01-11T03:54:44;45;25;
63305;PMS5003;50735;52.060;1.248;2024-01-11T03:57:16;52;28;
63305;PMS5003;50735;52.060;1.248;2024-01-11T03:59:48;46;23;
63305;PMS5003;50735;52.060;1.248;2024-01-11T04:02:20;42;25;
63305;PMS5003;50735;52.060;1.248;2024-01-11T04:04:52;27;21;
63305;PMS5003;50735;52.060;1.248;2024-01-11T04:07:23;28;24;
63305;PMS5003;50735;52.060;1.248;2024-01-11T04:09:55;33;23;
63305;PMS5003;50735;52.060;1.248;2024-01-11T04:12:27;30;22;
63305;PMS5003;50735;52.060;1.248;2024-01-11T04:14:59;27;22;
63305;PMS5003;50735;52.060;1.248;2024-01-11T04:17:31;40;26;
63305;PMS5003;50735;52.060;1.248;2024-01-11T04:20:03;44;25;
63305;PMS5003;50735;52.060;1.248;2024-01-11T04:22:37;30;27;
63305;PMS5003;50735;52.060;1.248;2024-01-11T04:25:09;27;22;
63305;PMS5003;50735;52.060;1.248;2024-01-11T04:27:41;32;24;
63305;PMS5003;50735;52.060;1.248;2024-01-11T04:30:12;39;22;
63305;PMS5003;50735;52.060;1.248;2024-01-11T04:32:45;29;23;
63305;PMS5003;50735;52.060;1.248;2024-01-11T04:35:16;28;21;
63305;PMS5003;50735;52.060;1.248;2024-01-11T04:37:49;41;22;
63305;PMS5003;50735;52.060;1.248;2024-01-11T04:40:20;32;18;
63305;PMS5003;50735;52.060;1.248;2024-01-11T04:42:52;26;18;
63305;PMS5003;50735;52.060;1.248;2024-01-11T04:45:23;45;29;
63305;PMS5003;50735;52.060;1.248;2024-01-11T04:47:55;26;20;
63305;PMS5003;50735;52.060;1.248;2024-01-11T04:50:27;36;21;
63305;PMS5003;50735;52.060;1.248;2024-01-11T04:52:59;36;23;
63305;PMS5003;50735;52.060;1.248;2024-01-11T04:55:30;38;22;
63305;PMS5003;50735;52.060;1.248;2024-01-11T04:58:02;27;20;
63305;PMS5003;50735;52.060;1.248;2024-01-11T05:00:34;28;20;
63305;PMS5003;50735;52.060;1.248;2024-01-11T05:03:06;26;17;
63305;PMS5003;50735;52.060;1.248;2024-01-11T05:05:38;34;23;
63305;PMS5003;50735;52.060;1.248;2024-01-11T05:08:11;23;20;
63305;PMS5003;50735;52.060;1.248;2024-01-11T05:10:42;26;19;
63305;PMS5003;50735;52.060;1.248;2024-01-11T05:13:14;17;17;
63305;PMS5003;50735;52.060;1.248;2024-01-11T05:15:46;27;19;
63305;PMS5003;50735;52.060;1.248;2024-01-11T05:18:18;27;21;
63305;PMS5003;50735;52.060;1.248;2024-01-11T05:20:51;41;20;
63305;PMS5003;50735;52.060;1.248;2024-01-11T05:23:23;39;17;
63305;PMS5003;50735;52.060;1.248;2024-01-11T05:25:55;28;21;
63305;PMS5003;50735;52.060;1.248;2024-01-11T05:28:27;19;15;
63305;PMS5003;50735;52.060;1.248;2024-01-11T05:30:58;27;17;
63305;PMS5003;50735;52.060;1.248;2024-01-11T05:33:30;25;14;
63305;PMS5003;50735;52.060;1.248;2024-01-11T05:36:02;22;15;
63305;PMS5003;50735;52.060;1.248;2024-01-11T05:38:35;20;13;
63305;PMS5003;50735;52.060;1.248;2024-01-11T05:41:07;10;10;
63305;PMS5003;50735;52.060;1.248;2024-01-11T05:43:39;17;16;
63305;PMS5003;50735;52.060;1.248;2024-01-11T05:46:12;15;14;
63305;PMS5003;50735;52.060;1.248;2024-01-11T05:48:44;15;14;
63305;PMS5003;50735;52.060;1.248;2024-01-11T05:51:16;14;11;
63305;PMS5003;50735;52.060;1.248;2024-01-11T05:53:48;19;15;
63305;PMS5003;50735;52.060;1.248;2024-01-11T05:56:20;14;10;
63305;PMS5003;50735;52.060;1.248;2024-01-11T05:58:52;20;13;
63305;PMS5003;50735;52.060;1.248;2024-01-11T06:01:24;16;14;
63305;PMS5003;50735;52.060;1.248;2024-01-11T06:03:56;16;10;
63305;PMS5003;50735;52.060;1.248;2024-01-11T06:06:28;14;9;
63305;PMS5003;50735;52.060;1.248;2024-01-11T06:09:00;24;11;
63305;PMS5003;50735;52.060;1.248;2024-01-11T06:11:31;16;13;
63305;PMS5003;50735;52.060;1.248;2024-01-11T06:14:03;15;10;
63305;PMS5003;50735;52.060;1.248;2024-01-11T06:16:35;9;8;
63305;PMS5003;50735;52.060;1.248;2024-01-11T06:19:07;9;8;
63305;PMS5003;50735;52.060;1.248;2024-01-11T06:21:39;21;14;
63305;PMS5003;50735;52.060;1.248;2024-01-11T06:24:11;14;10;
63305;PMS5003;50735;52.060;1.248;2024-01-11T06:26:43;9;8;
63305;PMS5003;50735;52.060;1.248;2024-01-11T06:29:16;8;8;
63305;PMS5003;50735;52.060;1.248;2024-01-11T06:31:48;9;9;
63305;PMS5003;50735;52.060;1.248;2024-01-11T06:34:20;10;10;
63305;PMS5003;50735;52.060;1.248;2024-01-11T06:36:53;11;9;
63305;PMS5003;50735;52.060;1.248;2024-01-11T06:39:26;9;7;
63305;PMS5003;50735;52.060;1.248;2024-01-11T06:41:58;10;10;
63305;PMS5003;50735;52.060;1.248;2024-01-11T06:44:30;7;7;
63305;PMS5003;50735;52.060;1.248;2024-01-11T06:47:02;8;5;
63305;PMS5003;50735;52.060;1.248;2024-01-11T06:49:37;11;9;
63305;PMS5003;50735;52.060;1.248;2024-01-11T06:52:09;8;5;
63305;PMS5003;50735;52.060;1.248;2024-01-11T06:54:41;9;7;
63305;PMS5003;50735;52.060;1.248;2024-01-11T06:57:13;11;10;
63305;PMS5003;50735;52.060;1.248;2024-01-11T06:59:45;9;9;
63305;PMS5003;50735;52.060;1.248;2024-01-11T07:02:17;16;8;
63305;PMS5003;50735;52.060;1.248;2024-01-11T07:04:49;9;9;
63305;PMS5003;50735;52.060;1.248;2024-01-11T07:07:21;11;10;
63305;PMS5003;50735;52.060;1.248;2024-01-11T07:09:53;13;9;
63305;PMS5003;50735;52.060;1.248;2024-01-11T07:12:25;10;5;
63305;PMS5003;50735;52.060;1.248;2024-01-11T07:14:58;5;5;
63305;PMS5003;50735;52.060;1.248;2024-01-11T07:17:30;10;7;
63305;PMS5003;50735;52.060;1.248;2024-01-11T07:20:02;15;11;
63305;PMS5003;50735;52.060;1.248;2024-01-11T07:22:34;11;10;
63305;PMS5003;50735;52.060;1.248;2024-01-11T07:25:06;7;7;
63305;PMS5003;50735;52.060;1.248;2024-01-11T07:27:39;7;7;
63305;PMS5003;50735;52.060;1.248;2024-01-11T07:30:11;9;4;
63305;PMS5003;50735;52.060;1.248;2024-01-11T07:32:44;7;7;
63305;PMS5003;50735;52.060;1.248;2024-01-11T07:35:16;3;3;
63305;PMS5003;50735;52.060;1.248;2024-01-11T07:37:48;7;4;
63305;PMS5003;50735;52.060;1.248;2024-01-11T07:40:20;4;4;
63305;PMS5003;50735;52.060;1.248;2024-01-11T07:42:51;5;5;
63305;PMS5003;50735;52.060;1.248;2024-01-11T07:45:23;8;6;
63305;PMS5003;50735;52.060;1.248;2024-01-11T07:47:56;6;4;
63305;PMS5003;50735;52.060;1.248;2024-01-11T07:50:28;5;5;
63305;PMS5003;50735;52.060;1.248;2024-01-11T07:52:59;14;5;
63305;PMS5003;50735;52.060;1.248;2024-01-11T07:55:31;7;7;
63305;PMS5003;50735;52.060;1.248;2024-01-11T07:58:03;8;7;
63305;PMS5003;50735;52.060;1.248;2024-01-11T08:00:36;8;4;
63305;PMS5003;50735;52.060;1.248;2024-01-11T08:03:08;4;4;
63305;PMS5003;50735;52.060;1.248;2024-01-11T08:05:39;20;8;
63305;PMS5003;50735;52.060;1.248;2024-01-11T08:08:11;4;4;
63305;PMS5003;50735;52.060;1.248;2024-01-11T08:10:43;7;4;
63305;PMS5003;50735;52.060;1.248;2024-01-11T08:13:16;14;7;
63305;PMS5003;50735;52.060;1.248;2024-01-11T08:15:48;10;5;
63305;PMS5003;50735;52.060;1.248;2024-01-11T08:18:20;11;8;
63305;PMS5003;50735;52.060;1.248;2024-01-11T08:20:51;8;8;
63305;PMS5003;50735;52.060;1.248;2024-01-11T08:23:23;14;8;
63305;PMS5003;50735;52.060;1.248;2024-01-11T08:25:55;9;8;
63305;PMS5003;50735;52.060;1.248;2024-01-11T08:28:28;9;8;
63305;PMS5003;50735;52.060;1.248;2024-01-11T08:31:00;8;7;
63305;PMS5003;50735;52.060;1.248;2024-01-11T08:33:32;5;5;
63305;PMS5003;50735;52.060;1.248;2024-01-11T08:36:04;8;8;
63305;PMS5003;50735;52.060;1.248;2024-01-11T08:38:37;7;7;
63305;PMS5003;50735;52.060;1.248;2024-01-11T08:41:09;11;9;
63305;PMS5003;50735;52.060;1.248;2024-01-11T08:43:41;10;10;
63305;PMS5003;50735;52.060;1.248;2024-01-11T08:46:22;12;12;
63305;PMS5003;50735;52.060;1.248;2024-01-11T08:48:55;11;10;
63305;PMS5003;50735;52.060;1.248;2024-01-11T08:51:27;9;9;
63305;PMS5003;50735;52.060;1.248;2024-01-11T08:53:59;9;8;
63305;PMS5003;50735;52.060;1.248;2024-01-11T08:56:31;12;10;
63305;PMS5003;50735;52.060;1.248;2024-01-11T08:59:02;10;10;
63305;PMS5003;50735;52.060;1.248;2024-01-11T09:01:35;6;6;
63305;PMS5003;50735;52.060;1.248;2024-01-11T09:04:07;27;12;
63305;PMS5003;50735;52.060;1.248;2024-01-11T09:06:39;10;7;
63305;PMS5003;50735;52.060;1.248;2024-01-11T09:09:11;12;9;
63305;PMS5003;50735;52.060;1.248;2024-01-11T09:11:43;11;6;
63305;PMS5003;50735;52.060;1.248;2024-01-11T09:14:15;8;8;
63305;PMS5003;50735;52.060;1.248;2024-01-11T09:16:47;6;6;
63305;PMS5003;50735;52.060;1.248;2024-01-11T09:19:19;10;7;
63305;PMS5003;50735;52.060;1.248;2024-01-11T09:21:51;6;6;
63305;PMS5003;50735;52.060;1.248;2024-01-11T09:24:23;10;7;
63305;PMS5003;50735;52.060;1.248;2024-01-11T09:26:54;10;9;
63305;PMS5003;50735;52.060;1.248;2024-01-11T09:29:26;10;7;
63305;PMS5003;50735;52.060;1.248;2024-01-11T09:31:58;8;7;
63305;PMS5003;50735;52.060;1.248;2024-01-11T09:34:31;7;6;
63305;PMS5003;50735;52.060;1.248;2024-01-11T09:37:03;7;5;
63305;PMS5003;50735;52.060;1.248;2024-01-11T09:39:34;8;5;
63305;PMS5003;50735;52.060;1.248;2024-01-11T09:42:07;8;5;
63305;PMS5003;50735;52.060;1.248;2024-01-11T09:44:40;7;7;
63305;PMS5003;50735;52.060;1.248;2024-01-11T09:47:13;10;8;
63305;PMS5003;50735;52.060;1.248;2024-01-11T09:49:47;7;7;
63305;PMS5003;50735;52.060;1.248;2024-01-11T09:52:20;7;7;
63305;PMS5003;50735;52.060;1.248;2024-01-11T09:54:54;7;7;
63305;PMS5003;50735;52.060;1.248;2024-01-11T09:57:28;8;8;
63305;PMS5003;50735;52.060;1.248;2024-01-11T10:00:02;12;8;
63305;PMS5003;50735;52.060;1.248;2024-01-11T10:02:35;10;8;
63305;PMS5003;50735;52.060;1.248;2024-01-11T10:05:07;7;7;
63305;PMS5003;50735;52.060;1.248;2024-01-11T10:07:39;11;7;
63305;PMS5003;50735;52.060;1.248;2024-01-11T10:10:12;10;10;
63305;PMS5003;50735;52.060;1.248;2024-01-11T10:12:44;17;11;
63305;PMS5003;50735;52.060;1.248;2024-01-11T10:15:16;10;7;
63305;PMS5003;50735;52.060;1.248;2024-01-11T10:17:48;12;7;
63305;PMS5003;50735;52.060;1.248;2024-01-11T10:20:20;7;7;
63305;PMS5003;50735;52.060;1.248;2024-01-11T10:22:51;6;6;
63305;PMS5003;50735;52.060;1.248;2024-01-11T10:25:23;6;6;
63305;PMS5003;50735;52.060;1.248;2024-01-11T10:27:55;8;6;
63305;PMS5003;50735;52.060;1.248;2024-01-11T10:30:28;19;6;
63305;PMS5003;50735;52.060;1.248;2024-01-11T10:33:00;7;6;
63305;PMS5003;50735;52.060;1.248;2024-01-11T10:35:32;8;5;
63305;PMS5003;50735;52.060;1.248;2024-01-11T10:38:04;6;5;
63305;PMS5003;50735;52.060;1.248;2024-01-11T10:40:41;6;4;
63305;PMS5003;50735;52.060;1.248;2024-01-11T10:43:14;5;5;
63305;PMS5003;50735;52.060;1.248;2024-01-11T10:45:53;3;3;
63305;PMS5003;50735;52.060;1.248;2024-01-11T10:48:31;8;3;
63305;PMS5003;50735;52.060;1.248;2024-01-11T10:51:04;3;3;
63305;PMS5003;50735;52.060;1.248;2024-01-11T10:53:41;5;4;
63305;PMS5003;50735;52.060;1.248;2024-01-11T10:56:14;3;2;
63305;PMS5003;50735;52.060;1.248;2024-01-11T10:58:47;2;2;
63305;PMS5003;50735;52.060;1.248;2024-01-11T11:01:20;6;3;
63305;PMS5003;50735;52.060;1.248;2024-01-11T11:03:54;4;2;
63305;PMS5003;50735;52.060;1.248;2024-01-11T11:06:26;13;9;
63305;PMS5003;50735;52.060;1.248;2024-01-11T11:09:00;11;10;
63305;PMS5003;50735;52.060;1.248;2024-01-11T11:11:33;11;8;
63305;PMS5003;50735;52.060;1.248;2024-01-11T11:14:05;95;71;
63305;PMS5003;50735;52.060;1.248;2024-01-11T11:16:38;60;42;
63305;PMS5003;50735;52.060;1.248;2024-01-11T11:19:10;9;7;
63305;PMS5003;50735;52.060;1.248;2024-01-11T11:21:43;39;25;
63305;PMS5003;50735;52.060;1.248;2024-01-11T11:24:16;11;7;
63305;PMS5003;50735;52.060;1.248;2024-01-11T11:26:48;8;6;
63305;PMS5003;50735;52.060;1.248;2024-01-11T11:29:20;7;6;
63305;PMS5003;50735;52.060;1.248;2024-01-11T11:31:52;3;3;
63305;PMS5003;50735;52.060;1.248;2024-01-11T11:34:39;3;3;
63305;PMS5003;50735;52.060;1.248;2024-01-11T11:37:12;4;2;
63305;PMS5003;50735;52.060;1.248;2024-01-11T11:39:43;3;2;
63305;PMS5003;50735;52.060;1.248;2024-01-11T11:42:15;4;2;
63305;PMS5003;50735;52.060;1.248;2024-01-11T11:44:48;4;1;
63305;PMS5003;50735;52.060;1.248;2024-01-11T11:47:21;3;3;
63305;PMS5003;50735;52.060;1.248;2024-01-11T11:49:58;4;4;
63305;PMS5003;50735;52.060;1.248;2024-01-11T11:52:35;5;4;
63305;PMS5003;50735;52.060;1.248;2024-01-11T11:55:08;5;5;
63305;PMS5003;50735;52.060;1.248;2024-01-11T11:57:40;7;5;
63305;PMS5003;50735;52.060;1.248;2024-01-11T12:00:15;5;5;
63305;PMS5003;50735;52.060;1.248;2024-01-11T12:02:48;21;13;
63305;PMS5003;50735;52.060;1.248;2024-01-11T12:05:21;99;75;
63305;PMS5003;50735;52.060;1.248;2024-01-11T12:07:53;16;12;
63305;PMS5003;50735;52.060;1.248;2024-01-11T12:10:25;12;12;
63305;PMS5003;50735;52.060;1.248;2024-01-11T12:12:57;16;15;
63305;PMS5003;50735;52.060;1.248;2024-01-11T12:15:29;10;10;
63305;PMS5003;50735;52.060;1.248;2024-01-11T12:18:01;6;6;
63305;PMS5003;50735;52.060;1.248;2024-01-11T12:20:33;8;7;
63305;PMS5003;50735;52.060;1.248;2024-01-11T12:23:05;15;15;
63305;PMS5003;50735;52.060;1.248;2024-01-11T12:25:37;4;4;
63305;PMS5003;50735;52.060;1.248;2024-01-11T12:28:09;4;4;
63305;PMS5003;50735;52.060;1.248;2024-01-11T12:30:41;4;4;
63305;PMS5003;50735;52.060;1.248;2024-01-11T12:33:13;5;4;
63305;PMS5003;50735;52.060;1.248;2024-01-11T12:35:46;5;4;
63305;PMS5003;50735;52.060;1.248;2024-01-11T12:38:18;2;1;
63305;PMS5003;50735;52.060;1.248;2024-01-11T12:40:50;2;2;
63305;PMS5003;50735;52.060;1.248;2024-01-11T12:43:23;2;2;
63305;PMS5003;50735;52.060;1.248;2024-01-11T12:45:55;5;4;
63305;PMS5003;50735;52.060;1.248;2024-01-11T12:48:27;3;3;
63305;PMS5003;50735;52.060;1.248;2024-01-11T12:50:58;4;3;
63305;PMS5003;50735;52.060;1.248;2024-01-11T12:53:30;7;6;
63305;PMS5003;50735;52.060;1.248;2024-01-11T12:56:03;6;5;
63305;PMS5003;50735;52.060;1.248;2024-01-11T12:58:36;4;3;
63305;PMS5003;50735;52.060;1.248;2024-01-11T13:01:08;3;3;
63305;PMS5003;50735;52.060;1.248;2024-01-11T13:03:43;3;3;
63305;PMS5003;50735;52.060;1.248;2024-01-11T13:06:16;2;2;
63305;PMS5003;50735;52.060;1.248;2024-01-11T13:08:48;3;3;
63305;PMS5003;50735;52.060;1.248;2024-01-11T13:11:20;4;3;
63305;PMS5003;50735;52.060;1.248;2024-01-11T13:13:52;4;4;
63305;PMS5003;50735;52.060;1.248;2024-01-11T13:16:24;3;2;
63305;PMS5003;50735;52.060;1.248;2024-01-11T13:18:56;3;3;
63305;PMS5003;50735;52.060;1.248;2024-01-11T13:21:28;4;4;
63305;PMS5003;50735;52.060;1.248;2024-01-11T13:24:00;4;4;
63305;PMS5003;50735;52.060;1.248;2024-01-11T13:26:32;6;5;
63305;PMS5003;50735;52.060;1.248;2024-01-11T13:29:04;5;5;
63305;PMS5003;50735;52.060;1.248;2024-01-11T13:31:36;6;4;
63305;PMS5003;50735;52.060;1.248;2024-01-11T13:34:08;9;6;
63305;PMS5003;50735;52.060;1.248;2024-01-11T13:36:40;10;8;
63305;PMS5003;50735;52.060;1.248;2024-01-11T13:39:12;13;8;
63305;PMS5003;50735;52.060;1.248;2024-01-11T13:41:44;6;6;
63305;PMS5003;50735;52.060;1.248;2024-01-11T13:44:16;8;5;
63305;PMS5003;50735;52.060;1.248;2024-01-11T13:46:48;5;5;
63305;PMS5003;50735;52.060;1.248;2024-01-11T13:49:20;8;7;
63305;PMS5003;50735;52.060;1.248;2024-01-11T13:51:51;4;4;
63305;PMS5003;50735;52.060;1.248;2024-01-11T13:54:23;4;3;
63305;PMS5003;50735;52.060;1.248;2024-01-11T13:56:55;5;4;
63305;PMS5003;50735;52.060;1.248;2024-01-11T13:59:27;5;4;
63305;PMS5003;50735;52.060;1.248;2024-01-11T14:01:59;6;5;
63305;PMS5003;50735;52.060;1.248;2024-01-11T14:04:31;7;7;
63305;PMS5003;50735;52.060;1.248;2024-01-11T14:07:03;6;6;
63305;PMS5003;50735;52.060;1.248;2024-01-11T14:09:35;7;7;
63305;PMS5003;50735;52.060;1.248;2024-01-11T14:12:07;9;6;
63305;PMS5003;50735;52.060;1.248;2024-01-11T14:14:39;6;4;
63305;PMS5003;50735;52.060;1.248;2024-01-11T14:17:11;5;5;
63305;PMS5003;50735;52.060;1.248;2024-01-11T14:19:43;5;5;
63305;PMS5003;50735;52.060;1.248;2024-01-11T14:22:15;10;5;
63305;PMS5003;50735;52.060;1.248;2024-01-11T14:24:47;8;7;
63305;PMS5003;50735;52.060;1.248;2024-01-11T14:27:19;12;8;
63305;PMS5003;50735;52.060;1.248;2024-01-11T14:29:52;80;62;
63305;PMS5003;50735;52.060;1.248;2024-01-11T14:32:24;56;42;
63305;PMS5003;50735;52.060;1.248;2024-01-11T14:34:56;63;44;
63305;PMS5003;50735;52.060;1.248;2024-01-11T14:37:28;38;33;
63305;PMS5003;50735;52.060;1.248;2024-01-11T14:40:01;36;25;
63305;PMS5003;50735;52.060;1.248;2024-01-11T14:42:33;17;16;
63305;PMS5003;50735;52.060;1.248;2024-01-11T14:45:05;17;11;
63305;PMS5003;50735;52.060;1.248;2024-01-11T14:47:37;17;10;
63305;PMS5003;50735;52.060;1.248;2024-01-11T14:50:09;15;14;
63305;PMS5003;50735;52.060;1.248;2024-01-11T14:52:41;14;13;
63305;PMS5003;50735;52.060;1.248;2024-01-11T14:55:13;16;9;
63305;PMS5003;50735;52.060;1.248;2024-01-11T14:57:44;9;9;
63305;PMS5003;50735;52.060;1.248;2024-01-11T15:00:17;11;11;
63305;PMS5003;50735;52.060;1.248;2024-01-11T15:02:49;13;12;
63305;PMS5003;50735;52.060;1.248;2024-01-11T15:05:21;9;9;
63305;PMS5003;50735;52.060;1.248;2024-01-11T15:07:53;13;9;
63305;PMS5003;50735;52.060;1.248;2024-01-11T15:10:25;16;10;
63305;PMS5003;50735;52.060;1.248;2024-01-11T15:12:57;13;10;
63305;PMS5003;50735;52.060;1.248;2024-01-11T15:15:29;11;8;
63305;PMS5003;50735;52.060;1.248;2024-01-11T15:18:00;9;7;
63305;PMS5003;50735;52.060;1.248;2024-01-11T15:20:32;14;9;
63305;PMS5003;50735;52.060;1.248;2024-01-11T15:23:04;10;10;
63305;PMS5003;50735;52.060;1.248;2024-01-11T15:25:36;12;9;
63305;PMS5003;50735;52.060;1.248;2024-01-11T15:28:08;15;11;
63305;PMS5003;50735;52.060;1.248;2024-01-11T15:30:41;11;9;
63305;PMS5003;50735;52.060;1.248;2024-01-11T15:33:13;9;9;
63305;PMS5003;50735;52.060;1.248;2024-01-11T15:35:45;7;7;
63305;PMS5003;50735;52.060;1.248;2024-01-11T15:38:17;14;12;
63305;PMS5003;50735;52.060;1.248;2024-01-11T15:40:49;13;11;
63305;PMS5003;50735;52.060;1.248;2024-01-11T15:43:21;9;7;
63305;PMS5003;50735;52.060;1.248;2024-01-11T15:45:53;13;11;
63305;PMS5003;50735;52.060;1.248;2024-01-11T15:48:25;13;13;
63305;PMS5003;50735;52.060;1.248;2024-01-11T15:50:57;18;12;
63305;PMS5003;50735;52.060;1.248;2024-01-11T15:53:28;14;10;
63305;PMS5003;50735;52.060;1.248;2024-01-11T15:56:00;13;9;
63305;PMS5003;50735;52.060;1.248;2024-01-11T15:58:32;13;11;
63305;PMS5003;50735;52.060;1.248;2024-01-11T16:01:04;12;11;
63305;PMS5003;50735;52.060;1.248;2024-01-11T16:03:36;12;12;
63305;PMS5003;50735;52.060;1.248;2024-01-11T16:06:07;23;12;
63305;PMS5003;50735;52.060;1.248;2024-01-11T16:08:40;23;15;
63305;PMS5003;50735;52.060;1.248;2024-01-11T16:11:12;18;12;
63305;PMS5003;50735;52.060;1.248;2024-01-11T16:13:44;14;14;
63305;PMS5003;50735;52.060;1.248;2024-01-11T16:16:16;13;11;
63305;PMS5003;50735;52.060;1.248;2024-01-11T16:18:48;16;12;
63305;PMS5003;50735;52.060;1.248;2024-01-11T16:21:20;10;9;
63305;PMS5003;50735;52.060;1.248;2024-01-11T16:23:51;15;15;
63305;PMS5003;50735;52.060;1.248;2024-01-11T16:26:23;10;10;
63305;PMS5003;50735;52.060;1.248;2024-01-11T16:28:55;21;12;
63305;PMS5003;50735;52.060;1.248;2024-01-11T16:31:26;13;12;
63305;PMS5003;50735;52.060;1.248;2024-01-11T16:33:58;24;15;
63305;PMS5003;50735;52.060;1.248;2024-01-11T16:36:30;13;13;
63305;PMS5003;50735;52.060;1.248;2024-01-11T16:39:07;21;13;
63305;PMS5003;50735;52.060;1.248;2024-01-11T16:41:39;16;9;
63305;PMS5003;50735;52.060;1.248;2024-01-11T16:44:11;28;12;
63305;PMS5003;50735;52.060;1.248;2024-01-11T16:46:43;21;14;
63305;PMS5003;50735;52.060;1.248;2024-01-11T16:49:15;19;12;
63305;PMS5003;50735;52.060;1.248;2024-01-11T16:51:47;16;12;
63305;PMS5003;50735;52.060;1.248;2024-01-11T16:54:19;61;41;
63305;PMS5003;50735;52.060;1.248;2024-01-11T16:56:51;77;60;
63305;PMS5003;50735;52.060;1.248;2024-01-11T16:59:22;94;68;
63305;PMS5003;50735;52.060;1.248;2024-01-11T17:01:54;25;22;
63305;PMS5003;50735;52.060;1.248;2024-01-11T17:04:26;18;13;